Portada
METAR-TAF:

METAR-TAF

Aeroports :

Dubbo, Austràlia

latitud: 32-12S, longitud: 148-34E, altitud: 275 m

Observació

L'informe es va fer fa 28 minuts, a les 16:00 UTC
Vent 10 kt del Est
Temperatura 19°C
Humitat 83%
Pressió 1022 hPa
Visibilitat 10 km o més

METAR: YSDU 201600Z AUTO 10010KT 9999 // NCD 19/16 Q1022 RF00.0/000.0

Hora: 02:28 (16:28 UTC)

Pronòstic

L'informe es va fer fa 5 hores i 37 minuts, a les 10:51 UTC
Pronòstic vàlid del 20 a les 12 UTC al 21 a les 06 UTC
Vent 12 kt del Est
Visibilitat 10 km o més
sense núvols per sota de 1500 mi sense presència de cumulonimbus.
A partir de les 21 a les 0000 UTC
Vent 8 kt del Nord-Est
Visibilitat 10 km o més
sense núvols per sota de 1500 mi sense presència de cumulonimbus.

TAF: YSDU 201051Z 2012/2106 09012KT CAVOK FM210000 04008KT CAVOK

Observacions i pronòstics meteorològics de més de 4000 aeroports (METAR i TAF).

Les estacions disponibles són els punts grocs i vermells al mapa.

Posi el ratolí al punt desitjat per veure el nom de l'estació.

Feu clic per veure les observacions i els pronòstics meteorològics.

Per canviar el mapa: feu clic els botons verds amb una creu de color negre per apropar; al botó verd amb un guió per allunyar la imatge; o en les fletxes verdes per a mapes adjacents.


METAR-TAF: